createdAt,value
2019-05-29T00:00:26.965Z,10.7
2019-05-29T00:01:26.907Z,10.64
2019-05-29T00:02:26.899Z,10.6
2019-05-29T00:03:26.889Z,10.55
2019-05-29T00:04:26.888Z,10.64
2019-05-29T00:05:26.871Z,10.59
2019-05-29T00:06:26.872Z,10.6
2019-05-29T00:07:26.851Z,10.61
2019-05-29T00:08:26.601Z,10.61
2019-05-29T00:09:26.834Z,10.51
2019-05-29T00:10:26.823Z,10.6
2019-05-29T00:11:41.483Z,10.59
2019-05-29T00:12:26.803Z,10.56
2019-05-29T00:13:26.825Z,10.52
2019-05-29T00:14:32.238Z,10.61
2019-05-29T00:15:26.775Z,10.61
2019-05-29T00:16:26.842Z,10.63
2019-05-29T00:17:26.762Z,10.59
2019-05-29T00:18:26.748Z,10.63
2019-05-29T00:19:26.738Z,10.66
2019-05-29T00:20:26.730Z,10.56
2019-05-29T00:21:26.720Z,10.56
2019-05-29T00:22:26.716Z,10.59
2019-05-29T00:23:26.454Z,10.55
2019-05-29T00:24:28.008Z,10.63
2019-05-29T00:25:26.684Z,10.6
2019-05-29T00:26:26.672Z,10.6
2019-05-29T00:27:26.667Z,10.55
2019-05-29T00:28:26.658Z,10.52
2019-05-29T00:29:26.645Z,10.63
2019-05-29T00:30:26.634Z,10.6
2019-05-29T00:31:26.627Z,10.64
2019-05-29T00:32:26.621Z,10.64
2019-05-29T00:33:26.606Z,10.64
2019-05-29T00:34:26.596Z,10.6
2019-05-29T00:35:26.587Z,10.66
2019-05-29T00:36:26.587Z,10.55
2019-05-29T00:37:26.570Z,10.68
2019-05-29T00:38:26.556Z,10.68
2019-05-29T00:39:26.550Z,10.67
2019-05-29T00:40:26.540Z,10.7
2019-05-29T00:41:26.535Z,10.7
2019-05-29T00:42:26.527Z,10.74
2019-05-29T00:43:26.513Z,10.76
2019-05-29T00:44:39.637Z,10.78
2019-05-29T00:45:26.493Z,10.78
2019-05-29T00:46:26.479Z,10.78
2019-05-29T00:47:26.480Z,10.74
2019-05-29T00:48:26.477Z,10.74
2019-05-29T00:49:26.451Z,10.71
2019-05-29T00:50:26.445Z,10.73
2019-05-29T00:51:26.431Z,10.79
2019-05-29T00:52:26.426Z,10.73
2019-05-29T00:53:26.190Z,10.78
2019-05-29T00:54:26.413Z,10.74
2019-05-29T00:55:26.395Z,10.78
2019-05-29T00:56:26.391Z,10.68
2019-05-29T00:57:26.381Z,10.82
2019-05-29T00:58:26.368Z,10.71
2019-05-29T00:59:26.358Z,10.78
2019-05-29T01:00:26.352Z,10.81
2019-05-29T01:01:26.349Z,10.68
2019-05-29T01:02:26.343Z,10.7
2019-05-29T01:03:26.323Z,10.76
2019-05-29T01:04:26.316Z,10.7
2019-05-29T01:05:26.308Z,10.7
2019-05-29T01:06:26.296Z,10.74
2019-05-29T01:07:32.548Z,10.71
2019-05-29T01:08:26.029Z,10.71
2019-05-29T01:09:26.269Z,10.76
2019-05-29T01:10:26.254Z,10.74
2019-05-29T01:11:26.245Z,10.71
2019-05-29T01:12:38.970Z,10.71
2019-05-29T01:13:25.985Z,10.7
2019-05-29T01:14:26.267Z,10.73
2019-05-29T01:15:26.316Z,10.79
2019-05-29T01:16:26.517Z,10.76
2019-05-29T01:17:38.922Z,10.71
2019-05-29T01:18:26.923Z,10.76
2019-05-29T01:19:26.953Z,10.66
2019-05-29T01:20:26.788Z,10.64
2019-05-29T01:21:26.942Z,10.64
2019-05-29T01:22:27.201Z,10.66
2019-05-29T01:23:27.204Z,10.64
2019-05-29T01:24:27.424Z,10.66
2019-05-29T01:25:27.367Z,10.66
2019-05-29T01:26:26.111Z,10.68
2019-05-29T01:27:26.096Z,10.64
2019-05-29T01:28:25.842Z,10.63
2019-05-29T01:29:26.075Z,10.63
2019-05-29T01:30:26.086Z,10.71
2019-05-29T01:31:26.403Z,10.66
2019-05-29T01:32:26.423Z,10.7
2019-05-29T01:33:29.030Z,10.67
2019-05-29T01:34:26.770Z,10.73
2019-05-29T01:35:26.791Z,10.7
2019-05-29T01:36:26.794Z,10.73
2019-05-29T01:37:27.052Z,10.66
2019-05-29T01:38:26.082Z,10.64
2019-05-29T01:39:26.150Z,10.74
2019-05-29T01:40:32.231Z,10.79
2019-05-29T01:41:26.245Z,10.74
2019-05-29T01:42:26.274Z,10.71
2019-05-29T01:43:25.995Z,10.73
2019-05-29T01:44:27.702Z,10.76
2019-05-29T01:45:26.284Z,10.74
2019-05-29T01:46:26.377Z,10.7
2019-05-29T01:47:26.329Z,10.71
2019-05-29T01:48:26.138Z,10.78
2019-05-29T01:49:26.419Z,10.74
2019-05-29T01:50:27.818Z,10.74
2019-05-29T01:51:27.943Z,10.78
2019-05-29T01:52:27.981Z,10.76
2019-05-29T01:53:26.267Z,10.78
2019-05-29T01:54:26.443Z,10.76
2019-05-29T01:55:26.491Z,10.74
2019-05-29T01:56:28.007Z,10.88
2019-05-29T01:57:26.556Z,10.76
2019-05-29T01:58:26.513Z,10.89
2019-05-29T01:59:26.655Z,10.91
2019-05-29T02:00:28.331Z,10.92
2019-05-29T02:01:26.707Z,10.86
2019-05-29T02:02:28.138Z,10.92
2019-05-29T02:03:26.474Z,10.86
2019-05-29T02:04:26.714Z,10.92
2019-05-29T02:05:26.803Z,10.91
2019-05-29T02:06:26.691Z,10.96
2019-05-29T02:07:28.238Z,10.97
2019-05-29T02:08:26.834Z,10.94
2019-05-29T02:09:26.824Z,11
2019-05-29T02:10:26.923Z,10.96
2019-05-29T02:11:26.038Z,10.99
2019-05-29T02:12:26.799Z,10.94
2019-05-29T02:13:25.930Z,10.91
2019-05-29T02:14:27.196Z,11.04
2019-05-29T02:15:36.379Z,11.02
2019-05-29T02:16:26.863Z,11.04
2019-05-29T02:17:26.563Z,11.04
2019-05-29T02:18:25.386Z,11.03
2019-05-29T02:19:26.521Z,11.07
2019-05-29T02:20:26.890Z,11.07
2019-05-29T02:21:26.955Z,11.11
2019-05-29T02:22:25.728Z,11.1
2019-05-29T02:23:26.548Z,11.1
2019-05-29T02:24:25.945Z,11.09
2019-05-29T02:25:26.699Z,11.07
2019-05-29T02:26:26.758Z,11.06
2019-05-29T02:27:26.191Z,11.03
2019-05-29T02:28:26.482Z,11.15
2019-05-29T02:29:26.865Z,11.18
2019-05-29T02:30:32.674Z,11.1
2019-05-29T02:31:30.739Z,11.18
2019-05-29T02:32:27.551Z,11.15
2019-05-29T02:33:28.417Z,11.27
2019-05-29T02:34:30.056Z,11.21
2019-05-29T02:35:31.185Z,11.24
2019-05-29T02:36:29.547Z,11.24
2019-05-29T02:37:29.003Z,11.21
2019-05-29T02:38:29.267Z,11.24
2019-05-29T02:39:29.671Z,11.29
2019-05-29T02:40:30.286Z,11.25
2019-05-29T02:41:30.298Z,11.25
2019-05-29T02:42:29.045Z,11.27
2019-05-29T02:43:28.096Z,11.29
2019-05-29T02:44:29.231Z,11.36
2019-05-29T02:45:54.893Z,11.28
2019-05-29T02:46:30.005Z,11.21
2019-05-29T02:47:30.103Z,11.28
2019-05-29T02:48:30.002Z,11.29
2019-05-29T02:49:28.616Z,11.25
2019-05-29T02:50:31.069Z,11.29
2019-05-29T02:51:30.304Z,11.27
2019-05-29T02:52:28.535Z,11.35
2019-05-29T02:53:28.722Z,11.37
2019-05-29T02:54:31.888Z,11.32
2019-05-29T02:55:27.441Z,11.32
2019-05-29T02:56:28.829Z,11.4
2019-05-29T02:57:27.125Z,11.35
2019-05-29T02:58:31.610Z,11.42
2019-05-29T02:59:28.093Z,11.43
2019-05-29T03:00:29.220Z,11.49
2019-05-29T03:01:29.558Z,11.4
2019-05-29T03:02:28.532Z,11.52
2019-05-29T03:03:29.899Z,11.54
2019-05-29T03:04:30.117Z,11.47
2019-05-29T03:05:29.834Z,11.49
2019-05-29T03:06:30.137Z,11.46
2019-05-29T03:07:29.119Z,11.52
2019-05-29T03:08:29.918Z,11.44
2019-05-29T03:09:28.323Z,11.52
2019-05-29T03:10:28.626Z,11.55
2019-05-29T03:11:27.029Z,11.49
2019-05-29T03:12:26.940Z,11.61
2019-05-29T03:13:27.405Z,11.6
2019-05-29T03:14:25.883Z,11.62
2019-05-29T03:15:27.303Z,11.61
2019-05-29T03:16:28.668Z,11.61
2019-05-29T03:17:27.869Z,11.64
2019-05-29T03:18:28.034Z,11.64
2019-05-29T03:19:27.874Z,11.65
2019-05-29T03:20:27.982Z,11.69
2019-05-29T03:21:28.214Z,11.76
2019-05-29T03:22:28.189Z,11.75
2019-05-29T03:23:26.570Z,11.79
2019-05-29T03:24:28.538Z,11.85
2019-05-29T03:25:26.679Z,11.83
2019-05-29T03:26:34.839Z,11.79
2019-05-29T03:27:25.667Z,11.83
2019-05-29T03:28:25.636Z,11.82
2019-05-29T03:29:25.920Z,11.85
2019-05-29T03:30:27.746Z,11.85
2019-05-29T03:31:28.033Z,11.83
2019-05-29T03:32:27.887Z,11.9
2019-05-29T03:33:27.294Z,11.94
2019-05-29T03:34:28.366Z,11.99
2019-05-29T03:35:28.083Z,11.94
2019-05-29T03:36:27.550Z,11.99
2019-05-29T03:37:26.244Z,11.95
2019-05-29T03:38:25.928Z,12.02
2019-05-29T03:39:26.312Z,11.95
2019-05-29T03:40:26.472Z,11.95
2019-05-29T03:41:26.171Z,12.01
2019-05-29T03:42:26.339Z,12.01
2019-05-29T03:43:26.115Z,11.96
2019-05-29T03:44:25.977Z,11.98
2019-05-29T03:45:25.158Z,12.12
2019-05-29T03:46:47.033Z,12.05
2019-05-29T03:47:26.761Z,12.12
2019-05-29T03:48:25.925Z,12.05
2019-05-29T03:49:24.826Z,12.05
2019-05-29T03:50:26.462Z,12.05
2019-05-29T03:51:24.899Z,12.17
2019-05-29T03:52:26.264Z,12.07
2019-05-29T03:53:24.855Z,12.1
2019-05-29T03:54:26.568Z,12.19
2019-05-29T03:55:24.777Z,12.23
2019-05-29T03:56:26.362Z,12.2
2019-05-29T03:57:24.764Z,12.17
2019-05-29T03:58:26.177Z,12.19
2019-05-29T03:59:26.578Z,12.21
2019-05-29T04:00:29.840Z,12.28
2019-05-29T04:01:24.726Z,12.35
2019-05-29T04:02:24.712Z,12.39
2019-05-29T04:03:24.706Z,12.46
2019-05-29T04:04:24.715Z,12.45
2019-05-29T04:05:24.704Z,12.45
2019-05-29T04:06:24.702Z,12.42
2019-05-29T04:07:24.677Z,12.46
2019-05-29T04:08:24.671Z,12.49
2019-05-29T04:09:24.682Z,12.52
2019-05-29T04:10:24.658Z,12.57
2019-05-29T04:11:24.649Z,12.56
2019-05-29T04:12:24.627Z,12.67
2019-05-29T04:13:24.652Z,12.68
2019-05-29T04:14:24.633Z,12.67
2019-05-29T04:15:24.621Z,12.68
2019-05-29T04:16:24.604Z,12.65
2019-05-29T04:17:24.609Z,12.62
2019-05-29T04:18:24.818Z,12.65
2019-05-29T04:19:24.597Z,12.65
2019-05-29T04:20:24.576Z,12.67
2019-05-29T04:21:24.568Z,12.6
2019-05-29T04:22:24.559Z,12.72
2019-05-29T04:23:24.310Z,12.74
2019-05-29T04:24:24.540Z,12.71
2019-05-29T04:25:24.537Z,12.74
2019-05-29T04:26:24.532Z,12.7
2019-05-29T04:27:24.534Z,12.72
2019-05-29T04:28:24.516Z,12.65
2019-05-29T04:29:24.333Z,12.78
2019-05-29T04:30:24.505Z,12.83
2019-05-29T04:31:24.505Z,12.93
2019-05-29T04:32:24.245Z,13.01
2019-05-29T04:33:24.472Z,13.11
2019-05-29T04:34:24.466Z,13.12
2019-05-29T04:35:24.481Z,13.2
2019-05-29T04:36:24.479Z,13.22
2019-05-29T04:37:24.474Z,13.28
2019-05-29T04:38:24.437Z,13.22
2019-05-29T04:39:24.446Z,13.11
2019-05-29T04:40:24.442Z,13.12
2019-05-29T04:41:24.423Z,13.15
2019-05-29T04:42:24.401Z,13.11
2019-05-29T04:43:24.396Z,13.1
2019-05-29T04:44:24.414Z,13.12
2019-05-29T04:45:24.397Z,13.17
2019-05-29T04:46:24.393Z,13.23
2019-05-29T04:47:24.382Z,13.19
2019-05-29T04:48:24.400Z,13.23
2019-05-29T04:49:24.976Z,13.19
2019-05-29T04:50:24.347Z,13.28
2019-05-29T04:51:24.357Z,13.29
2019-05-29T04:52:24.336Z,13.25
2019-05-29T04:53:24.333Z,13.3
2019-05-29T04:54:24.327Z,13.28
2019-05-29T04:55:24.312Z,13.25
2019-05-29T04:56:24.304Z,13.19
2019-05-29T04:57:24.318Z,13.23
2019-05-29T04:58:24.295Z,13.17
2019-05-29T04:59:24.292Z,13.11
2019-05-29T05:00:24.281Z,13.15
2019-05-29T05:01:24.271Z,13.3
2019-05-29T05:02:24.372Z,13.26
2019-05-29T05:03:24.279Z,13.3
2019-05-29T05:04:24.250Z,13.41
2019-05-29T05:05:24.553Z,13.38
2019-05-29T05:06:24.236Z,13.51
2019-05-29T05:07:24.235Z,13.52
2019-05-29T05:08:24.229Z,13.48
2019-05-29T05:09:24.213Z,13.55
2019-05-29T05:10:24.205Z,13.55
2019-05-29T05:11:24.198Z,13.73
2019-05-29T05:12:24.198Z,13.85
2019-05-29T05:13:24.187Z,13.92
2019-05-29T05:14:24.182Z,13.85
2019-05-29T05:15:24.176Z,13.92
2019-05-29T05:16:24.169Z,13.88
2019-05-29T05:17:32.114Z,13.78
2019-05-29T05:18:24.156Z,13.81
2019-05-29T05:19:24.148Z,13.87
2019-05-29T05:20:24.141Z,13.75
2019-05-29T05:21:23.650Z,13.64
2019-05-29T05:22:24.132Z,13.71
2019-05-29T05:23:24.124Z,13.73
2019-05-29T05:24:24.121Z,13.77
2019-05-29T05:25:24.107Z,13.88
2019-05-29T05:26:24.108Z,13.88
2019-05-29T05:27:24.102Z,14.03
2019-05-29T05:28:24.096Z,14.1
2019-05-29T05:29:24.083Z,14.22
2019-05-29T05:30:24.098Z,14.24
2019-05-29T05:31:24.074Z,14.36
2019-05-29T05:32:24.095Z,14.46
2019-05-29T05:33:24.065Z,14.6
2019-05-29T05:34:24.056Z,14.65
2019-05-29T05:35:23.824Z,14.62
2019-05-29T05:36:24.049Z,14.77
2019-05-29T05:37:24.061Z,14.75
2019-05-29T05:38:24.044Z,14.78
2019-05-29T05:39:24.275Z,14.8
2019-05-29T05:40:24.023Z,14.94
2019-05-29T05:41:24.021Z,14.95
2019-05-29T05:42:24.009Z,15.09
2019-05-29T05:43:29.114Z,15.09
2019-05-29T05:44:23.996Z,15.11
2019-05-29T05:45:23.995Z,15.17
2019-05-29T05:46:27.173Z,15.21
2019-05-29T05:47:23.983Z,15.28
2019-05-29T05:48:23.977Z,15.19
2019-05-29T05:49:23.973Z,15.1
2019-05-29T05:50:23.997Z,14.99
2019-05-29T05:51:23.971Z,14.81
2019-05-29T05:52:24.013Z,14.88
2019-05-29T05:53:23.960Z,14.83
2019-05-29T05:54:23.946Z,14.7
2019-05-29T05:55:23.941Z,14.57
2019-05-29T05:56:23.938Z,14.51
2019-05-29T05:57:23.932Z,14.51
2019-05-29T05:58:23.937Z,14.4
2019-05-29T05:59:23.919Z,14.43
2019-05-29T06:00:23.919Z,14.32
2019-05-29T06:01:23.910Z,14.45
2019-05-29T06:02:23.902Z,14.47
2019-05-29T06:03:23.899Z,14.57
2019-05-29T06:04:23.890Z,14.83
2019-05-29T06:05:24.092Z,15.1
2019-05-29T06:06:23.878Z,15.32
2019-05-29T06:07:23.876Z,15.57
2019-05-29T06:08:23.876Z,15.87
2019-05-29T06:09:23.868Z,16.05
2019-05-29T06:10:23.874Z,16.39
2019-05-29T06:11:23.857Z,16.63
2019-05-29T06:12:23.870Z,16.94
2019-05-29T06:13:23.853Z,17.19
2019-05-29T06:14:23.845Z,17.54
2019-05-29T06:15:23.842Z,17.79
2019-05-29T06:16:23.899Z,17.84
2019-05-29T06:17:26.683Z,18
2019-05-29T06:18:26.498Z,18.32
2019-05-29T06:19:23.833Z,18.55
2019-05-29T06:20:23.876Z,18.98
2019-05-29T06:21:23.817Z,19.22
2019-05-29T06:22:23.821Z,19.37
2019-05-29T06:23:23.821Z,19.47
2019-05-29T06:24:23.817Z,19.65
2019-05-29T06:25:23.823Z,19.74
2019-05-29T06:26:23.828Z,19.86
2019-05-29T06:27:23.821Z,19.92
2019-05-29T06:28:23.817Z,20.06
2019-05-29T06:29:23.914Z,20.23
2019-05-29T06:30:23.588Z,20.42
2019-05-29T06:31:26.988Z,20.7
2019-05-29T06:32:23.822Z,20.97
2019-05-29T06:33:23.583Z,21.24
2019-05-29T06:34:23.595Z,21.43
2019-05-29T06:35:23.836Z,21.52
2019-05-29T06:36:23.851Z,21.53
2019-05-29T06:37:23.872Z,21.49
2019-05-29T06:38:23.618Z,21.49
2019-05-29T06:39:23.848Z,21.62
2019-05-29T06:40:23.856Z,21.54
2019-05-29T06:41:23.860Z,21.4
2019-05-29T06:42:23.912Z,21.19
2019-05-29T06:43:23.882Z,21.12
2019-05-29T06:44:23.950Z,21.09
2019-05-29T06:45:23.882Z,21.06
2019-05-29T06:46:23.887Z,21.21
2019-05-29T06:47:23.907Z,21.56
2019-05-29T06:48:56.118Z,21.94
2019-05-29T06:49:23.892Z,22.1
2019-05-29T06:50:23.897Z,22.42
2019-05-29T06:51:23.899Z,22.9
2019-05-29T06:52:23.908Z,23.1
2019-05-29T06:53:23.907Z,23.4
2019-05-29T06:54:23.918Z,23.58
2019-05-29T06:55:23.943Z,23.78
2019-05-29T06:56:23.931Z,24.2
2019-05-29T06:57:28.252Z,24.52
2019-05-29T06:58:23.954Z,24.77
2019-05-29T06:59:23.957Z,24.84
2019-05-29T07:00:42.852Z,24.77
2019-05-29T07:01:23.966Z,24.99
2019-05-29T07:02:23.982Z,25.27
2019-05-29T07:03:23.990Z,25.3
2019-05-29T07:04:23.982Z,25.75
2019-05-29T07:05:30.738Z,26.01
2019-05-29T07:06:23.997Z,26.09
2019-05-29T07:07:24.016Z,26.28
2019-05-29T07:08:48.217Z,26.48
2019-05-29T07:09:24.033Z,26.6
2019-05-29T07:10:23.895Z,26.7
2019-05-29T07:11:24.046Z,26.99
2019-05-29T07:12:24.054Z,27.19
2019-05-29T07:13:24.079Z,27.13
2019-05-29T07:14:24.064Z,27
2019-05-29T07:15:24.097Z,26.57
2019-05-29T07:16:40.906Z,26.07
2019-05-29T07:17:24.094Z,25.79
2019-05-29T07:18:24.126Z,25.57
2019-05-29T07:20:00.350Z,25.15
2019-05-29T07:20:24.118Z,24.93
2019-05-29T07:21:24.129Z,24.49
2019-05-29T07:22:24.142Z,24.08
2019-05-29T07:23:24.148Z,23.85
2019-05-29T07:24:24.154Z,23.66
2019-05-29T07:25:24.168Z,23.43
2019-05-29T07:26:24.161Z,23.19
2019-05-29T07:27:24.187Z,23.05
2019-05-29T07:28:24.379Z,23.1
2019-05-29T07:29:24.244Z,23.1
2019-05-29T07:30:24.188Z,23.01
2019-05-29T07:31:24.193Z,23.17
2019-05-29T07:32:24.232Z,22.98
2019-05-29T07:33:24.209Z,22.85
2019-05-29T07:34:24.243Z,22.72
2019-05-29T07:35:24.218Z,22.77
2019-05-29T07:36:24.247Z,22.85
2019-05-29T07:37:23.993Z,22.83
2019-05-29T07:38:24.241Z,22.88
2019-05-29T07:39:24.242Z,22.85
2019-05-29T07:40:24.308Z,22.9
2019-05-29T07:41:24.249Z,22.92
2019-05-29T07:42:24.271Z,22.97
2019-05-29T07:43:24.275Z,23.09
2019-05-29T07:44:24.269Z,23.05
2019-05-29T07:45:24.276Z,22.86
2019-05-29T07:46:24.291Z,22.47
2019-05-29T07:47:24.415Z,22.46
2019-05-29T07:48:24.295Z,22.42
2019-05-29T07:49:43.322Z,22.57
2019-05-29T07:50:46.503Z,22.82
2019-05-29T07:51:47.532Z,22.88
2019-05-29T07:52:49.019Z,22.95
2019-05-29T07:53:46.786Z,23.04
2019-05-29T07:54:48.289Z,23.42
2019-05-29T07:55:46.662Z,23.66
2019-05-29T07:56:46.516Z,23.72
2019-05-29T07:57:47.257Z,23.85
2019-05-29T07:59:03.986Z,23.85
2019-05-29T07:59:46.530Z,23.87
2019-05-29T08:01:15.736Z,24.15
2019-05-29T08:01:45.651Z,24.34
2019-05-29T08:02:47.714Z,24.73
2019-05-29T08:03:47.410Z,24.95
2019-05-29T08:04:47.081Z,25.03
2019-05-29T08:05:53.419Z,25.3
2019-05-29T08:06:57.018Z,25.69
2019-05-29T08:07:47.432Z,25.9
2019-05-29T08:08:45.722Z,25.9
2019-05-29T08:09:46.172Z,25.6
2019-05-29T08:10:47.878Z,25.5
2019-05-29T08:11:47.611Z,25.32
2019-05-29T08:12:57.726Z,25.09
2019-05-29T08:13:46.036Z,25.09
2019-05-29T08:14:47.655Z,25.14
2019-05-29T08:16:05.685Z,25.52
2019-05-29T08:16:47.817Z,25.65
2019-05-29T08:17:47.934Z,25.83
2019-05-29T08:18:54.364Z,25.92
2019-05-29T08:20:09.517Z,25.67
2019-05-29T08:20:46.627Z,25.47
2019-05-29T08:21:48.846Z,25.05
2019-05-29T08:22:48.408Z,24.76
2019-05-29T08:23:46.719Z,24.57
2019-05-29T08:24:51.087Z,24.46
2019-05-29T08:25:47.483Z,24.53
2019-05-29T08:26:46.962Z,24.53
2019-05-29T08:27:47.115Z,24.53
2019-05-29T08:28:47.119Z,24.52
2019-05-29T08:29:47.198Z,24.28
2019-05-29T08:30:56.299Z,23.83
2019-05-29T08:31:46.729Z,23.47
2019-05-29T08:32:46.932Z,22.9
2019-05-29T08:33:45.436Z,22.51
2019-05-29T08:34:46.793Z,22.25
2019-05-29T08:35:55.513Z,22.05
2019-05-29T08:37:09.533Z,21.71
2019-05-29T08:37:45.923Z,21.58
2019-05-29T08:38:49.807Z,21.62
2019-05-29T08:39:45.787Z,21.72
2019-05-29T08:40:45.819Z,22
2019-05-29T08:42:23.714Z,22.49
2019-05-29T08:42:45.882Z,22.55
2019-05-29T08:43:50.598Z,22.62
2019-05-29T08:44:46.077Z,22.49
2019-05-29T08:45:47.932Z,22.36
2019-05-29T08:47:10.310Z,21.91
2019-05-29T08:47:46.260Z,21.68
2019-05-29T08:48:46.410Z,21.38
2019-05-29T08:49:54.406Z,21.1
2019-05-29T08:50:46.330Z,20.88
2019-05-29T08:51:47.968Z,20.73
2019-05-29T08:52:46.557Z,20.35
2019-05-29T08:53:49.224Z,20.42
2019-05-29T08:54:47.800Z,20.29
2019-05-29T08:55:46.789Z,20.38
2019-05-29T08:56:48.344Z,20.51
2019-05-29T08:57:48.699Z,20.76
2019-05-29T08:58:48.665Z,21.07
2019-05-29T08:59:46.848Z,21.21
2019-05-29T09:00:55.964Z,21.38
2019-05-29T09:01:51.140Z,21.35
2019-05-29T09:02:48.884Z,21.44
2019-05-29T09:03:48.764Z,21.49
2019-05-29T09:04:52.891Z,21.42
2019-05-29T09:06:01.370Z,21.46
2019-05-29T09:06:47.143Z,21.49
2019-05-29T09:07:49.447Z,21.72
2019-05-29T09:08:49.901Z,21.88
2019-05-29T09:09:46.690Z,21.94
2019-05-29T09:10:47.105Z,21.83
2019-05-29T09:11:47.355Z,21.61
2019-05-29T09:13:03.545Z,21.37
2019-05-29T09:13:45.799Z,21.17
2019-05-29T09:14:45.589Z,20.76
2019-05-29T09:15:45.801Z,20.31
2019-05-29T09:16:45.810Z,19.95
2019-05-29T09:17:45.795Z,19.94
2019-05-29T09:18:45.554Z,19.8
2019-05-29T09:19:45.797Z,19.96
2019-05-29T09:21:06.869Z,20.17
2019-05-29T09:21:45.799Z,20.23
2019-05-29T09:22:45.802Z,20.38
2019-05-29T09:23:45.802Z,20.54
2019-05-29T09:24:45.794Z,20.62
2019-05-29T09:25:45.795Z,20.52
2019-05-29T09:26:48.872Z,20.21
2019-05-29T09:27:45.804Z,20.03
2019-05-29T09:28:45.550Z,19.76
2019-05-29T09:29:45.790Z,19.46
2019-05-29T09:30:45.792Z,19.26
2019-05-29T09:31:45.798Z,19.07
2019-05-29T09:32:55.799Z,18.88
2019-05-29T09:33:45.788Z,18.92
2019-05-29T09:34:49.924Z,18.95
2019-05-29T09:35:45.782Z,18.95
2019-05-29T09:36:45.878Z,19.06
2019-05-29T09:37:45.774Z,19.25
2019-05-29T09:38:45.819Z,19.33
2019-05-29T09:39:45.781Z,19.71
2019-05-29T09:40:45.770Z,19.76
2019-05-29T09:41:45.766Z,19.76
2019-05-29T09:42:45.795Z,19.63
2019-05-29T09:44:03.052Z,19.51
2019-05-29T09:44:45.766Z,19.47
2019-05-29T09:45:45.759Z,19.44
2019-05-29T09:46:45.763Z,19.47
2019-05-29T09:47:45.765Z,19.51
2019-05-29T09:48:54.810Z,19.51
2019-05-29T09:49:45.750Z,19.68
2019-05-29T09:52:55.235Z,19.94
2019-05-29T09:53:09.124Z,19.94
2019-05-29T09:54:09.461Z,20.05
2019-05-29T09:55:09.338Z,20.14
2019-05-29T09:56:09.330Z,20.03
2019-05-29T09:57:09.342Z,19.86
2019-05-29T09:58:09.167Z,19.73
2019-05-29T09:59:09.370Z,19.71
2019-05-29T10:00:09.336Z,19.61
2019-05-29T10:01:28.342Z,19.63
2019-05-29T10:02:13.351Z,19.61
2019-05-29T10:03:09.316Z,19.54
2019-05-29T10:04:11.074Z,19.46
2019-05-29T10:05:09.321Z,19.5
2019-05-29T10:06:11.904Z,19.4
2019-05-29T10:07:09.794Z,19.31
2019-05-29T10:08:09.308Z,19.39
2019-05-29T10:09:09.324Z,19.36
2019-05-29T10:10:09.969Z,19.29
2019-05-29T10:11:15.236Z,19.22
2019-05-29T10:12:11.638Z,19.26
2019-05-29T10:13:09.052Z,19.28
2019-05-29T10:14:09.847Z,19.39
2019-05-29T10:15:09.296Z,19.5
2019-05-29T10:16:09.467Z,19.65
2019-05-29T10:17:16.774Z,19.65
2019-05-29T10:18:33.629Z,19.56
2019-05-29T10:19:09.764Z,19.36
2019-05-29T10:20:09.843Z,19.26
2019-05-29T10:21:09.873Z,19.18
2019-05-29T10:22:10.458Z,19.04
2019-05-29T10:23:09.903Z,18.95
2019-05-29T10:24:10.875Z,18.92
2019-05-29T10:25:10.569Z,19.07
2019-05-29T10:26:11.145Z,19.21
2019-05-29T10:27:11.314Z,19.28
2019-05-29T10:28:10.887Z,19.13
2019-05-29T10:29:14.398Z,19.23
2019-05-29T10:30:09.246Z,19.19
2019-05-29T10:31:10.013Z,19.32
2019-05-29T10:34:09.266Z,19.54
2019-05-29T10:35:09.244Z,19.55
2019-05-29T10:36:09.315Z,19.65
2019-05-29T10:37:09.227Z,19.84
2019-05-29T10:38:09.046Z,20.03
2019-05-29T10:39:12.437Z,20.23
2019-05-29T10:40:09.234Z,20.35
2019-05-29T10:41:11.809Z,20.64
2019-05-29T10:42:09.219Z,20.69
2019-05-29T10:43:08.994Z,20.69
2019-05-29T10:44:12.552Z,20.82
2019-05-29T10:45:09.239Z,20.79
2019-05-29T10:46:09.563Z,20.79
2019-05-29T10:47:09.303Z,20.57
2019-05-29T10:48:08.968Z,20.1
2019-05-29T10:49:09.722Z,19.84
2019-05-29T10:50:09.307Z,19.61
2019-05-29T10:51:09.192Z,19.33
2019-05-29T10:52:20.179Z,18.99
2019-05-29T10:53:08.947Z,18.94
2019-05-29T10:54:09.268Z,18.99
2019-05-29T10:55:09.183Z,18.98
2019-05-29T10:56:09.188Z,18.92
2019-05-29T10:57:09.201Z,18.94
2019-05-29T10:58:08.942Z,18.91
2019-05-29T10:59:09.170Z,19.08
2019-05-29T11:00:09.177Z,18.98
2019-05-29T11:01:08.925Z,18.99
2019-05-29T11:02:09.185Z,19.1
2019-05-29T11:03:09.170Z,19.14
2019-05-29T11:04:09.155Z,19.19
2019-05-29T11:05:08.916Z,19.29
2019-05-29T11:06:09.159Z,19.28
2019-05-29T11:07:09.164Z,19.23
2019-05-29T11:08:08.899Z,19.06
2019-05-29T11:09:09.142Z,19
2019-05-29T11:10:08.902Z,18.91
2019-05-29T11:11:09.135Z,18.91
2019-05-29T11:12:09.135Z,18.9
2019-05-29T11:13:08.887Z,18.95
2019-05-29T11:14:09.129Z,18.91
2019-05-29T11:15:25.579Z,19.02
2019-05-29T11:16:09.116Z,18.98
2019-05-29T11:17:09.182Z,19.02
2019-05-29T11:18:09.113Z,19.06
2019-05-29T11:19:08.881Z,19.14
2019-05-29T11:20:09.134Z,19.29
2019-05-29T11:21:09.101Z,19.33
2019-05-29T11:22:30.061Z,19.48
2019-05-29T11:23:09.090Z,19.51
2019-05-29T11:24:09.134Z,19.61
2019-05-29T11:25:30.073Z,19.63
2019-05-29T11:26:09.084Z,19.81
2019-05-29T11:27:09.091Z,19.87
2019-05-29T11:28:08.836Z,19.81
2019-05-29T11:29:09.093Z,19.87
2019-05-29T11:30:09.074Z,19.8
2019-05-29T11:31:11.179Z,19.92
2019-05-29T11:32:09.077Z,19.8
2019-05-29T11:33:09.117Z,19.74
2019-05-29T11:34:09.063Z,19.59
2019-05-29T11:35:09.068Z,19.47
2019-05-29T11:36:16.912Z,19.47
2019-05-29T11:37:09.052Z,19.47
2019-05-29T11:38:08.811Z,19.55
2019-05-29T11:39:11.052Z,19.62
2019-05-29T11:40:09.047Z,19.73
2019-05-29T11:41:30.750Z,19.68
2019-05-29T11:42:09.049Z,19.73
2019-05-29T11:43:09.037Z,19.76
2019-05-29T11:44:09.035Z,19.73
2019-05-29T11:45:08.794Z,19.94
2019-05-29T11:46:09.027Z,19.86
2019-05-29T11:47:09.037Z,19.87
2019-05-29T11:48:10.106Z,19.77
2019-05-29T11:49:09.040Z,19.73
2019-05-29T11:50:23.962Z,19.69
2019-05-29T11:51:09.014Z,19.91
2019-05-29T11:52:44.470Z,19.95
2019-05-29T11:53:08.764Z,19.95
2019-05-29T11:54:08.999Z,20.03
2019-05-29T11:55:12.502Z,20.06
2019-05-29T11:56:09.003Z,20.01
2019-05-29T11:57:08.992Z,19.91
2019-05-29T11:58:09.001Z,19.71
2019-05-29T11:59:08.984Z,19.58
2019-05-29T12:00:23.996Z,19.44
2019-05-29T12:01:08.987Z,19.31
2019-05-29T12:02:08.988Z,19.33
2019-05-29T12:03:08.980Z,19.39
2019-05-29T12:04:29.555Z,19.47
2019-05-29T12:05:08.971Z,19.46
2019-05-29T12:06:09.165Z,19.46
2019-05-29T12:07:08.965Z,19.44
2019-05-29T12:08:09.332Z,19.31
2019-05-29T12:09:09.036Z,19.25
2019-05-29T12:10:10.927Z,19.14
2019-05-29T12:11:11.840Z,18.88
2019-05-29T12:12:08.960Z,18.76
2019-05-29T12:13:08.702Z,18.63
2019-05-29T12:14:08.950Z,18.51
2019-05-29T12:15:21.052Z,18.48
2019-05-29T12:16:08.953Z,18.42
2019-05-29T12:17:09.115Z,18.36
2019-05-29T12:18:27.434Z,18.42
2019-05-29T12:19:08.921Z,18.48
2019-05-29T12:20:30.936Z,18.5
2019-05-29T12:21:08.922Z,18.67
2019-05-29T12:22:08.948Z,18.81
2019-05-29T12:23:29.825Z,18.92
2019-05-29T12:24:08.904Z,18.92
2019-05-29T12:25:08.915Z,19
2019-05-29T12:26:25.932Z,19.02
2019-05-29T12:27:08.964Z,19.04
2019-05-29T12:28:08.903Z,18.91
2019-05-29T12:29:16.243Z,18.9
2019-05-29T12:30:08.888Z,18.92
2019-05-29T12:31:08.911Z,19.02
2019-05-29T12:32:15.600Z,18.98
2019-05-29T12:33:08.628Z,19.18
2019-05-29T12:34:22.670Z,19.36
2019-05-29T12:35:08.871Z,19.4
2019-05-29T12:36:08.861Z,19.65
2019-05-29T12:37:08.907Z,19.59
2019-05-29T12:38:08.859Z,19.61
2019-05-29T12:39:09.059Z,19.36
2019-05-29T12:40:08.965Z,19.11
2019-05-29T12:41:08.852Z,19.07
2019-05-29T12:42:08.841Z,18.99
2019-05-29T12:43:25.821Z,18.98
2019-05-29T12:44:08.631Z,19.06
2019-05-29T12:45:09.133Z,19.02
2019-05-29T12:46:08.953Z,19.04
2019-05-29T12:47:09.278Z,19.06
2019-05-29T12:49:08.825Z,19.18
2019-05-29T12:50:09.183Z,19.14
2019-05-29T12:51:09.116Z,19.19
2019-05-29T12:52:13.216Z,19.16
2019-05-29T12:53:08.568Z,19.16
2019-05-29T12:54:10.007Z,19.08
2019-05-29T12:55:09.013Z,19.07
2019-05-29T12:56:09.428Z,18.99
2019-05-29T12:57:09.169Z,18.9
2019-05-29T12:58:09.288Z,18.8
2019-05-29T12:59:09.463Z,18.76
2019-05-29T13:00:10.457Z,18.87